Airfield :
LOGIN :

Register | Disclaimer

   EN    FR    IT 

 










Legend :    VFR   Marginal VFR   IFR   Intensive IFR   Very Intensive IFR
Visi :
Ceiling :
>= 8 km
>= 3000ft
5 to 8 km
1000 to 3000 ft
1500m to 5 km
500 to 1000 ft
800 to 1500m
200 to 500 ft
< 800m
< 200 ft
Symbols :   Thunderstorms  Fog  Heavy snow  Heavy precipitations  Wind > 20 kt
SIGMETs :     Misc.  Thunderstorms  Icing  Turbulence  Mountain Waves  Volcanic Ashes






- Airport Elevation : 1 ft


EGCK - Caernarfon

CURRENT METAR :
  • 231420Z 02014KT 350V050 9999 FEW037 12/02 Q1025

EXPIRED METARs :
  • 231350Z 02014KT 350V050 9999 FEW037 12/02 Q1025
  • 231320Z 03014KT 9999 FEW038 12/04 Q1025
  • 231250Z 02012KT 9999 FEW040 12/04 Q1025
  • 231220Z 03012KT 9999 SCT036 12/05 Q1026
  • 231150Z 03014KT 9999 BKN032 12/04 Q1026
  • 231120Z 03014KT 9999 BKN032 12/04 Q1026
  • 231050Z 03011KT 9999 FEW027 SCT034 12/04 Q1026
  • 231020Z 03012KT 9999 FEW030 12/05 Q1026
  • 230950Z 03012KT 9999 FEW032 SCT049 12/05 Q1026

TAF TAF EGCK
Valid from the 23 at 15:00 until the 24 at 00:00 UTC


231358Z 2315/2324 02009KT 9999 SCT030



MET'MAP, your aeronautical weather chart ! - Copyright ORBIFLY December 2007 - Disclaimer

ORBIFLY MET'MAP TEAM :

Programming & Development : Alexandra Zaïnal
Original concept : Baudouin d'Aumeries
Technical & hardware support : Manuel Goepfert
Assistance : Marc-Olivier Méhu




SOURCES & CREDITS :

   NOAA